Time;durP1;ratioP1;P1;durP2;ratioP2;P2;SDS_P1;SDS_P2;PMS_P1;PMS_P2;Temp;Humidity;BMP_temperature;BMP_pressure;BME280_temperature;BME280_humidity;BME280_pressure;Samples;Min_cycle;Max_cycle;Signal;HPM_P1;HPM_P2
2023/08/26 00:01:49;;;;;;;2.65;1.70;;;16.90;99.90;;;;;;5060562;28;20491;-35
2023/08/26 00:04:15;;;;;;;4.80;1.90;;;16.80;99.90;;;;;;5052195;28;20514;-35
2023/08/26 00:06:41;;;;;;;4.93;2.10;;;16.90;99.90;;;;;;5061239;28;20124;-35
2023/08/26 00:09:06;;;;;;;2.90;1.85;;;16.80;99.90;;;;;;5064380;28;20055;-35
2023/08/26 00:11:32;;;;;;;3.55;2.08;;;16.80;99.90;;;;;;5067265;28;20044;-35
2023/08/26 00:13:58;;;;;;;3.53;1.63;;;16.80;99.90;;;;;;5066408;28;20036;-35
2023/08/26 00:16:23;;;;;;;6.40;1.98;;;16.80;99.90;;;;;;5062531;28;20434;-35
2023/08/26 00:18:49;;;;;;;4.55;1.98;;;16.80;99.90;;;;;;5058202;28;20406;-35
2023/08/26 00:21:17;;;;;;;4.15;1.77;;;16.70;99.90;;;;;;5060089;28;20394;-37
2023/08/26 00:23:43;;;;;;;5.13;2.00;;;16.70;99.90;;;;;;5061143;28;20617;-37
2023/08/26 00:26:12;;;;;;;3.65;1.75;;;16.70;99.90;;;;;;5053058;28;20140;-36
2023/08/26 00:28:37;;;;;;;4.35;1.90;;;16.70;99.90;;;;;;5050862;28;20108;-37
2023/08/26 00:31:03;;;;;;;5.15;1.65;;;16.70;99.90;;;;;;5051886;28;20045;-36
2023/08/26 00:33:29;;;;;;;4.40;1.77;;;16.70;99.90;;;;;;5051684;28;20105;-37
2023/08/26 00:35:55;;;;;;;4.18;1.83;;;16.70;99.90;;;;;;5059674;28;20704;-37
2023/08/26 00:38:21;;;;;;;2.75;1.65;;;16.70;99.90;;;;;;5061771;28;20060;-35
2023/08/26 00:40:47;;;;;;;5.10;1.65;;;16.60;99.90;;;;;;5065745;28;20414;-35
2023/08/26 00:43:12;;;;;;;5.95;1.67;;;16.50;99.90;;;;;;5061967;28;20083;-35
2023/08/26 00:45:42;;;;;;;5.15;2.10;;;16.50;99.90;;;;;;5066556;28;20053;-35
2023/08/26 00:48:11;;;;;;;5.13;1.90;;;16.40;99.90;;;;;;5065319;28;20068;-35
2023/08/26 00:50:45;;;;;;;3.78;1.85;;;16.40;99.90;;;;;;5068948;28;20486;-35
2023/08/26 00:53:12;;;;;;;5.63;1.85;;;16.30;99.90;;;;;;5052038;28;20044;-35
2023/08/26 00:55:39;;;;;;;2.75;1.40;;;16.30;99.90;;;;;;5060400;28;20147;-35
2023/08/26 00:58:06;;;;;;;4.22;2.00;;;16.30;99.90;;;;;;5060277;28;20409;-35
2023/08/26 01:00:35;;;;;;;4.50;1.90;;;16.30;99.90;;;;;;5058306;28;20052;-35
2023/08/26 01:03:01;;;;;;;6.20;2.33;;;16.20;99.90;;;;;;5052767;28;20449;-35
2023/08/26 01:05:28;;;;;;;5.80;2.60;;;16.20;99.90;;;;;;5038139;28;20098;-35
2023/08/26 01:07:54;;;;;;;6.13;2.63;;;16.10;99.90;;;;;;5057977;28;20570;-35
2023/08/26 01:10:31;;;;;;;6.75;2.40;;;16.10;99.90;;;;;;5054562;28;20045;-35
2023/08/26 01:13:03;;;;;;;5.00;2.03;;;16.10;99.90;;;;;;5061837;28;20485;-35
2023/08/26 01:15:31;;;;;;;4.90;1.90;;;16.10;99.90;;;;;;5059215;28;20421;-34
2023/08/26 01:18:00;;;;;;;9.73;3.20;;;16.10;99.90;;;;;;5046769;28;20490;-34
2023/08/26 01:20:27;;;;;;;3.83;2.13;;;16.00;99.90;;;;;;5048032;28;20059;-35
2023/08/26 01:22:55;;;;;;;4.72;1.90;;;16.00;99.90;;;;;;5061959;28;20048;-35
2023/08/26 01:25:21;;;;;;;4.20;1.98;;;16.00;99.90;;;;;;5040781;28;20063;-36
2023/08/26 01:27:47;;;;;;;6.28;2.15;;;16.10;99.90;;;;;;5040932;28;20052;-34
2023/08/26 01:30:13;;;;;;;4.75;2.00;;;16.10;99.90;;;;;;5063663;28;20077;-34
2023/08/26 01:32:57;;;;;;;5.18;2.08;;;16.20;99.90;;;;;;5056663;28;20067;-35
2023/08/26 01:35:33;;;;;;;3.67;2.05;;;16.20;99.90;;;;;;5062115;28;20093;-34
2023/08/26 01:37:59;;;;;;;2.53;1.63;;;16.20;99.90;;;;;;5059769;28;20517;-34
2023/08/26 01:40:26;;;;;;;3.95;1.88;;;16.20;99.90;;;;;;5057488;28;20078;-35
2023/08/26 01:42:54;;;;;;;3.08;1.80;;;16.20;99.90;;;;;;5062623;28;20072;-35
2023/08/26 01:45:20;;;;;;;4.72;1.70;;;16.20;99.90;;;;;;5057616;28;20140;-35
2023/08/26 01:47:45;;;;;;;4.80;1.98;;;16.20;99.90;;;;;;5047469;28;20053;-35
2023/08/26 01:50:11;;;;;;;6.28;2.40;;;16.20;99.90;;;;;;5049319;28;20048;-34
2023/08/26 01:52:37;;;;;;;2.85;1.75;;;16.20;99.90;;;;;;5063851;28;20044;-35
2023/08/26 01:55:03;;;;;;;4.90;2.20;;;16.20;99.90;;;;;;5066173;28;20057;-35
2023/08/26 01:57:29;;;;;;;6.38;1.98;;;16.20;99.90;;;;;;5064689;28;20048;-35
2023/08/26 01:59:56;;;;;;;4.25;2.00;;;16.10;99.90;;;;;;5059738;28;20051;-35
2023/08/26 02:02:21;;;;;;;4.80;2.15;;;16.10;99.90;;;;;;5064904;28;20125;-35
2023/08/26 02:04:47;;;;;;;6.60;2.50;;;16.10;99.90;;;;;;5060213;28;20052;-35
2023/08/26 02:07:13;;;;;;;4.95;2.25;;;16.10;99.90;;;;;;5063656;28;20044;-35
2023/08/26 02:09:38;;;;;;;4.63;1.92;;;16.00;99.90;;;;;;5061964;28;20414;-34
2023/08/26 02:12:05;;;;;;;4.50;1.48;;;16.00;99.90;;;;;;5063327;28;20135;-36
2023/08/26 02:14:31;;;;;;;4.45;1.95;;;16.00;99.90;;;;;;5055124;28;20144;-35
2023/08/26 02:16:56;;;;;;;6.90;1.88;;;16.00;99.90;;;;;;5063463;28;20103;-35
2023/08/26 02:19:22;;;;;;;3.60;2.20;;;16.00;99.90;;;;;;5065582;28;20040;-35
2023/08/26 02:21:48;;;;;;;5.75;2.35;;;16.00;99.90;;;;;;5061890;28;20060;-35
2023/08/26 02:24:13;;;;;;;4.30;2.40;;;16.00;99.90;;;;;;5059768;28;20399;-36
2023/08/26 02:26:39;;;;;;;2.55;1.40;;;15.90;99.90;;;;;;5066553;28;20044;-35
2023/08/26 02:29:04;;;;;;;6.97;2.20;;;15.90;99.90;;;;;;5049244;28;20041;-35
2023/08/26 02:31:30;;;;;;;4.75;1.90;;;15.90;99.90;;;;;;5043179;28;20494;-36
2023/08/26 02:33:56;;;;;;;5.47;2.50;;;15.90;99.90;;;;;;5053193;28;20072;-35
2023/08/26 02:36:22;;;;;;;5.35;2.50;;;15.80;99.90;;;;;;5053610;28;20052;-36
2023/08/26 02:38:48;;;;;;;9.55;2.70;;;15.80;99.90;;;;;;5043753;28;20139;-36
2023/08/26 02:41:14;;;;;;;6.43;2.92;;;15.80;99.90;;;;;;5045790;28;20232;-36
2023/08/26 02:43:39;;;;;;;5.88;3.03;;;15.70;99.90;;;;;;5054393;28;20064;-35
2023/08/26 02:46:05;;;;;;;5.28;2.30;;;15.60;99.90;;;;;;5047448;28;20397;-35
2023/08/26 02:48:30;;;;;;;5.38;2.65;;;15.50;99.90;;;;;;5068061;28;20078;-35
2023/08/26 02:51:00;;;;;;;4.60;2.53;;;15.40;99.90;;;;;;5070982;28;20048;-35
2023/08/26 02:53:28;;;;;;;5.95;3.03;;;15.40;99.90;;;;;;5070415;28;20521;-35
2023/08/26 02:55:54;;;;;;;6.63;2.90;;;15.40;99.90;;;;;;5069486;28;20491;-35
2023/08/26 02:58:21;;;;;;;4.32;2.88;;;15.30;99.90;;;;;;5069175;28;20059;-35
2023/08/26 03:00:47;;;;;;;4.63;2.95;;;15.40;99.90;;;;;;5069214;28;20060;-35
2023/08/26 03:03:14;;;;;;;6.50;2.85;;;15.40;99.90;;;;;;5058939;28;20052;-35
2023/08/26 03:05:39;;;;;;;8.63;3.00;;;15.40;99.90;;;;;;5068069;28;20093;-35
2023/08/26 03:08:06;;;;;;;5.50;2.85;;;15.40;99.90;;;;;;5067436;28;20044;-35
2023/08/26 03:10:31;;;;;;;6.97;2.80;;;15.40;99.90;;;;;;5067681;28;20049;-35
2023/08/26 03:12:58;;;;;;;4.35;2.35;;;15.50;99.90;;;;;;5061049;28;20048;-35
2023/08/26 03:15:27;;;;;;;9.10;3.08;;;15.50;99.90;;;;;;5067439;28;20071;-36
2023/08/26 03:17:53;;;;;;;4.13;2.90;;;15.50;99.90;;;;;;5062409;28;20061;-35
2023/08/26 03:20:19;;;;;;;7.82;2.80;;;15.50;99.90;;;;;;5067328;28;20082;-35
2023/08/26 03:22:45;;;;;;;10.23;3.60;;;15.50;99.90;;;;;;5056068;28;20167;-35
2023/08/26 03:25:11;;;;;;;5.40;3.35;;;15.50;99.90;;;;;;5066380;28;20056;-35
2023/08/26 03:27:37;;;;;;;5.90;3.20;;;15.50;99.90;;;;;;5060193;28;20067;-35
2023/08/26 03:30:03;;;;;;;6.85;3.33;;;15.50;99.90;;;;;;5061661;28;20140;-35
2023/08/26 03:32:29;;;;;;;6.15;3.22;;;15.50;99.90;;;;;;5058269;28;20076;-35
2023/08/26 03:34:54;;;;;;;6.75;3.08;;;15.50;99.90;;;;;;5059876;28;20076;-35
2023/08/26 03:37:20;;;;;;;4.63;2.88;;;15.50;99.90;;;;;;5068124;28;20075;-35
2023/08/26 03:39:45;;;;;;;4.82;3.22;;;15.60;99.90;;;;;;5065518;28;20072;-35
2023/08/26 03:42:11;;;;;;;7.40;3.45;;;15.70;99.90;;;;;;5066666;28;20475;-35
2023/08/26 03:44:37;;;;;;;5.32;2.90;;;15.60;99.90;;;;;;5059902;28;20421;-35
2023/08/26 03:47:03;;;;;;;5.03;3.17;;;15.70;99.90;;;;;;5067617;28;20044;-35
2023/08/26 03:49:28;;;;;;;6.30;3.05;;;15.70;99.90;;;;;;5067659;28;20456;-36
2023/08/26 03:51:54;;;;;;;4.55;3.08;;;15.70;99.90;;;;;;5067204;28;20465;-35
2023/08/26 03:54:20;;;;;;;4.90;2.67;;;15.70;99.90;;;;;;5065988;28;20106;-36
2023/08/26 03:56:46;;;;;;;4.72;2.45;;;15.70;99.90;;;;;;5067404;28;20062;-35
2023/08/26 03:59:11;;;;;;;4.93;3.25;;;15.60;99.90;;;;;;5067669;28;20049;-36
2023/08/26 04:01:37;;;;;;;6.18;3.00;;;15.60;99.90;;;;;;5064038;28;20044;-35
2023/08/26 04:04:03;;;;;;;5.35;2.78;;;15.60;99.90;;;;;;5051975;28;20104;-35
2023/08/26 04:06:28;;;;;;;5.68;2.75;;;15.60;99.90;;;;;;5065585;28;20150;-35
2023/08/26 04:08:54;;;;;;;7.53;2.92;;;15.60;99.90;;;;;;5062194;28;20057;-35
2023/08/26 04:11:20;;;;;;;6.07;2.83;;;15.60;99.90;;;;;;5046304;28;20049;-35
2023/08/26 04:13:45;;;;;;;5.25;3.10;;;15.60;99.90;;;;;;5060796;28;20110;-36
2023/08/26 04:16:11;;;;;;;7.65;3.15;;;15.50;99.90;;;;;;5065070;28;20048;-36
2023/08/26 04:18:37;;;;;;;5.15;2.95;;;15.50;99.90;;;;;;5053559;28;20454;-40
2023/08/26 04:21:03;;;;;;;7.00;3.95;;;15.50;99.90;;;;;;5050650;28;20083;-33
2023/08/26 04:23:30;;;;;;;7.53;3.40;;;15.50;99.90;;;;;;5061897;28;20773;-33
2023/08/26 04:26:08;;;;;;;6.75;3.33;;;15.50;99.90;;;;;;5058862;28;20555;-33
2023/08/26 04:28:34;;;;;;;4.75;2.70;;;15.50;99.90;;;;;;5060828;28;20506;-33
2023/08/26 04:31:00;;;;;;;5.03;3.08;;;15.50;99.90;;;;;;5050131;28;20048;-36
2023/08/26 04:33:26;;;;;;;5.50;2.80;;;15.50;99.90;;;;;;5042730;28;20052;-36
2023/08/26 04:35:51;;;;;;;6.18;3.35;;;15.50;99.90;;;;;;5040552;28;20411;-36
2023/08/26 04:38:17;;;;;;;6.88;3.00;;;15.50;99.90;;;;;;5054755;28;20056;-33
2023/08/26 04:40:43;;;;;;;5.38;3.15;;;15.50;99.90;;;;;;5059095;28;20040;-34
2023/08/26 04:43:10;;;;;;;6.70;2.72;;;15.60;99.90;;;;;;5058233;28;20135;-35
2023/08/26 04:45:40;;;;;;;8.63;3.05;;;15.60;99.90;;;;;;5060960;28;20794;-35
2023/08/26 04:48:07;;;;;;;6.63;2.58;;;15.60;99.90;;;;;;5064584;28;20133;-35
2023/08/26 04:50:33;;;;;;;4.95;2.97;;;15.60;99.90;;;;;;5065225;28;20045;-36
2023/08/26 04:53:00;;;;;;;6.72;3.50;;;15.60;99.90;;;;;;5054564;28;20080;-35
2023/08/26 04:55:25;;;;;;;5.50;2.70;;;15.50;99.90;;;;;;5066084;28;20056;-35
2023/08/26 04:57:51;;;;;;;5.28;3.20;;;15.60;99.90;;;;;;5063881;28;20048;-35
2023/08/26 05:00:17;;;;;;;6.10;3.20;;;15.60;99.90;;;;;;5060530;28;20493;-35
2023/08/26 05:02:43;;;;;;;8.23;3.80;;;15.60;99.90;;;;;;5058841;28;20055;-35
2023/08/26 05:05:09;;;;;;;6.40;3.78;;;15.60;99.90;;;;;;5066922;28;20060;-35
2023/08/26 05:07:35;;;;;;;6.18;3.72;;;15.60;99.90;;;;;;5065415;28;20084;-36
2023/08/26 05:10:03;;;;;;;7.43;4.22;;;15.60;99.90;;;;;;5051580;28;20048;-35
2023/08/26 05:12:29;;;;;;;10.38;4.75;;;15.60;99.90;;;;;;5065567;28;20826;-35
2023/08/26 05:14:55;;;;;;;7.45;4.32;;;15.60;99.90;;;;;;5047038;28;20053;-35
2023/08/26 05:17:21;;;;;;;8.73;5.18;;;15.60;99.90;;;;;;5057848;28;20098;-35
2023/08/26 05:19:46;;;;;;;8.63;4.78;;;15.60;99.90;;;;;;5065147;28;20478;-35
2023/08/26 05:22:12;;;;;;;10.55;5.00;;;15.60;99.90;;;;;;5064209;28;20135;-35
2023/08/26 05:24:38;;;;;;;7.93;4.60;;;15.60;99.90;;;;;;5061873;28;20044;-35
2023/08/26 05:27:04;;;;;;;7.78;5.15;;;15.60;99.90;;;;;;5059211;28;21465;-35
2023/08/26 05:29:30;;;;;;;8.48;4.50;;;15.60;99.90;;;;;;5054431;28;20068;-35
2023/08/26 05:31:55;;;;;;;10.30;5.30;;;15.60;99.90;;;;;;5043760;28;20102;-35
2023/08/26 05:34:21;;;;;;;8.60;4.85;;;15.60;99.90;;;;;;5061897;28;20040;-35
2023/08/26 05:36:47;;;;;;;10.30;4.78;;;15.60;99.90;;;;;;5046966;28;20053;-35
2023/08/26 05:39:12;;;;;;;8.70;4.90;;;15.70;99.90;;;;;;5058167;28;20055;-35
2023/08/26 05:41:38;;;;;;;7.10;4.10;;;15.70;99.90;;;;;;5066785;28;20052;-35
2023/08/26 05:44:04;;;;;;;12.52;4.82;;;15.70;99.90;;;;;;5065242;28;20139;-34
2023/08/26 05:46:30;;;;;;;10.55;5.10;;;15.70;99.90;;;;;;5061744;28;20055;-34
2023/08/26 05:48:55;;;;;;;9.63;4.85;;;15.70;99.90;;;;;;5063296;28;20045;-34
2023/08/26 05:51:21;;;;;;;8.93;4.50;;;15.70;99.90;;;;;;5063465;28;20052;-34
2023/08/26 05:53:47;;;;;;;8.00;4.60;;;15.70;99.90;;;;;;5063929;28;20448;-35
2023/08/26 05:56:13;;;;;;;8.57;4.35;;;15.70;99.90;;;;;;5059400;28;20053;-35
2023/08/26 05:58:38;;;;;;;9.13;4.88;;;15.70;99.90;;;;;;5046951;28;20068;-35
2023/08/26 06:01:04;;;;;;;9.85;4.60;;;15.70;99.90;;;;;;5053585;28;20049;-36
2023/08/26 06:03:30;;;;;;;11.05;5.20;;;15.70;99.90;;;;;;5050460;28;20088;-35
2023/08/26 06:05:55;;;;;;;14.20;4.75;;;15.70;99.90;;;;;;5059306;28;20048;-35
2023/08/26 06:08:21;;;;;;;7.93;4.68;;;15.70;99.90;;;;;;5059069;28;20055;-35
2023/08/26 06:10:47;;;;;;;9.00;4.72;;;15.60;99.90;;;;;;5064261;28;20043;-35
2023/08/26 06:13:12;;;;;;;9.32;4.78;;;15.60;99.90;;;;;;5062261;28;20418;-36
2023/08/26 06:15:38;;;;;;;7.93;3.90;;;15.50;99.90;;;;;;5063634;28;20151;-35
2023/08/26 06:18:04;;;;;;;8.90;4.45;;;15.50;99.90;;;;;;5062983;28;20066;-35
2023/08/26 06:20:30;;;;;;;9.30;5.47;;;15.50;99.90;;;;;;5065835;28;20060;-34
2023/08/26 06:22:55;;;;;;;7.63;4.57;;;15.50;99.90;;;;;;5064802;28;20056;-35
2023/08/26 06:25:21;;;;;;;9.38;4.60;;;15.50;99.90;;;;;;5067669;28;20414;-35
2023/08/26 06:27:46;;;;;;;8.55;4.70;;;15.60;99.90;;;;;;5061628;28;20054;-35
2023/08/26 06:30:12;;;;;;;9.90;4.43;;;15.70;99.90;;;;;;5062403;28;20129;-35
2023/08/26 06:32:38;;;;;;;6.63;4.30;;;15.70;99.90;;;;;;5065989;28;20059;-36
2023/08/26 06:35:04;;;;;;;8.73;5.35;;;15.80;99.90;;;;;;5067126;28;20090;-35
2023/08/26 06:37:30;;;;;;;8.90;5.07;;;15.90;99.90;;;;;;5058610;28;20371;-35
2023/08/26 06:39:56;;;;;;;12.68;5.80;;;15.90;99.90;;;;;;5039561;28;20056;-35
2023/08/26 06:42:22;;;;;;;8.73;5.25;;;15.90;99.90;;;;;;5041947;28;20067;-35
2023/08/26 06:44:47;;;;;;;11.45;5.25;;;16.00;99.90;;;;;;5057664;28;20049;-35
2023/08/26 06:47:13;;;;;;;10.77;5.45;;;15.90;99.90;;;;;;5057576;28;20048;-35
2023/08/26 06:49:38;;;;;;;9.25;5.70;;;15.90;99.90;;;;;;5047474;28;20444;-35
2023/08/26 06:52:04;;;;;;;9.25;4.82;;;15.90;99.90;;;;;;5054420;28;20132;-35
2023/08/26 06:54:33;;;;;;;7.97;5.03;;;15.90;99.90;;;;;;5066289;28;20070;-35
2023/08/26 06:56:59;;;;;;;11.80;5.25;;;16.00;99.90;;;;;;5067369;28;20048;-35
2023/08/26 06:59:24;;;;;;;11.27;5.40;;;16.10;99.90;;;;;;5055477;28;20109;-35
2023/08/26 07:01:50;;;;;;;9.50;5.57;;;16.00;99.90;;;;;;5055694;28;20047;-35
2023/08/26 07:04:16;;;;;;;8.85;5.53;;;16.00;99.90;;;;;;5058357;28;20585;-35
2023/08/26 07:06:41;;;;;;;11.75;5.97;;;16.00;99.90;;;;;;5055319;28;20049;-36
2023/08/26 07:09:07;;;;;;;9.82;5.43;;;16.10;99.90;;;;;;5063958;28;20040;-35
2023/08/26 07:11:33;;;;;;;10.43;4.80;;;16.10;99.90;;;;;;5056220;28;20049;-35
2023/08/26 07:13:59;;;;;;;10.20;6.05;;;16.30;99.90;;;;;;5058987;28;20497;-35
2023/08/26 07:16:25;;;;;;;10.40;5.38;;;16.30;99.90;;;;;;5065483;28;20839;-35
2023/08/26 07:18:51;;;;;;;12.00;5.20;;;16.40;99.90;;;;;;5056068;28;20067;-35
2023/08/26 07:21:17;;;;;;;7.90;4.18;;;16.50;99.90;;;;;;5059222;28;20049;-35
2023/08/26 07:23:42;;;;;;;7.47;4.60;;;16.60;99.90;;;;;;5061183;28;20056;-35
2023/08/26 07:26:08;;;;;;;8.45;5.15;;;16.60;99.90;;;;;;5061451;28;20044;-36
2023/08/26 07:28:34;;;;;;;11.43;5.38;;;16.70;99.90;;;;;;5051730;28;20048;-35
2023/08/26 07:31:04;;;;;;;7.32;4.28;;;16.60;99.90;;;;;;5056183;28;20056;-35
2023/08/26 07:33:30;;;;;;;9.02;4.97;;;16.70;99.90;;;;;;5052199;28;20462;-35
2023/08/26 07:36:07;;;;;;;10.63;5.05;;;16.80;99.90;;;;;;5045680;28;20521;-35
2023/08/26 07:38:33;;;;;;;11.52;4.65;;;16.90;99.90;;;;;;5066175;28;20055;-35
2023/08/26 07:40:59;;;;;;;7.53;4.68;;;16.90;99.90;;;;;;5065164;28;20520;-35
2023/08/26 07:43:25;;;;;;;9.68;4.43;;;16.90;99.90;;;;;;5065855;28;20057;-36
2023/08/26 07:45:51;;;;;;;9.25;4.47;;;16.90;99.90;;;;;;5057135;28;20442;-35
2023/08/26 07:48:16;;;;;;;9.10;4.75;;;17.00;99.90;;;;;;5059427;28;20117;-35
2023/08/26 07:50:42;;;;;;;8.73;3.80;;;17.00;99.90;;;;;;5051232;28;20151;-36
2023/08/26 07:53:08;;;;;;;9.27;5.40;;;17.00;99.90;;;;;;5058219;28;20048;-33
2023/08/26 07:55:34;;;;;;;10.50;5.25;;;17.00;99.90;;;;;;5061637;28;20044;-35
2023/08/26 07:58:00;;;;;;;7.43;3.70;;;17.00;99.90;;;;;;5058904;28;20052;-35
2023/08/26 08:00:27;;;;;;;6.97;4.25;;;17.00;99.90;;;;;;5053478;28;20057;-35
2023/08/26 08:02:55;;;;;;;7.55;4.30;;;17.10;99.90;;;;;;5034785;28;20566;-35
2023/08/26 08:05:21;;;;;;;11.93;4.35;;;17.30;99.90;;;;;;5057484;28;20140;-35
2023/08/26 08:07:47;;;;;;;7.57;3.42;;;17.40;99.90;;;;;;5057149;28;20485;-34
2023/08/26 08:10:12;;;;;;;6.53;3.40;;;17.60;99.90;;;;;;5057783;28;20054;-36
2023/08/26 08:12:38;;;;;;;8.00;4.05;;;17.70;99.90;;;;;;5055750;28;20056;-35
2023/08/26 08:15:04;;;;;;;8.65;3.45;;;17.80;99.90;;;;;;5058637;28;20056;-35
2023/08/26 08:17:31;;;;;;;6.38;3.28;;;17.90;99.90;;;;;;5060729;28;20050;-41
2023/08/26 08:19:57;;;;;;;7.93;3.95;;;18.00;99.90;;;;;;5060611;28;20466;-34
2023/08/26 08:22:36;;;;;;;8.23;3.10;;;18.00;99.90;;;;;;5050849;28;20045;-34
2023/08/26 08:25:02;;;;;;;8.23;3.28;;;18.20;99.90;;;;;;5051340;28;20052;-35
2023/08/26 08:27:29;;;;;;;6.20;3.10;;;18.40;99.90;;;;;;5043974;28;20056;-34
2023/08/26 08:29:55;;;;;;;6.13;2.88;;;18.60;99.90;;;;;;5054811;28;20056;-35
2023/08/26 08:32:21;;;;;;;10.40;3.15;;;18.70;99.90;;;;;;5058918;28;20401;-35
2023/08/26 08:34:47;;;;;;;8.15;3.00;;;18.80;99.90;;;;;;5068318;28;20045;-34
2023/08/26 08:37:12;;;;;;;5.88;2.50;;;18.90;99.90;;;;;;5063181;28;20089;-34
2023/08/26 08:39:38;;;;;;;4.70;2.55;;;18.90;99.90;;;;;;5066379;28;20040;-35
2023/08/26 08:42:05;;;;;;;5.63;2.92;;;18.80;99.90;;;;;;5056307;28;20084;-34
2023/08/26 08:44:34;;;;;;;6.32;2.70;;;18.70;99.90;;;;;;5050867;28;20058;-35
2023/08/26 08:47:04;;;;;;;4.88;2.28;;;18.90;99.90;;;;;;5059183;28;20467;-35
2023/08/26 08:49:30;;;;;;;8.48;3.00;;;18.90;99.90;;;;;;5053107;28;20059;-35
2023/08/26 08:51:57;;;;;;;8.65;2.65;;;19.00;99.90;;;;;;5053974;28;20075;-35
2023/08/26 08:54:28;;;;;;;5.00;2.05;;;18.90;99.90;;;;;;5058521;28;20052;-37
2023/08/26 08:56:55;;;;;;;7.72;2.20;;;18.80;99.90;;;;;;5060520;28;20057;-38
2023/08/26 08:59:22;;;;;;;5.80;2.33;;;18.70;99.90;;;;;;5060872;28;20053;-34
2023/08/26 09:01:48;;;;;;;5.82;2.60;;;18.70;99.90;;;;;;5064031;28;20080;-35
2023/08/26 09:04:13;;;;;;;6.15;1.67;;;18.80;99.90;;;;;;5069224;28;20094;-34
2023/08/26 09:06:39;;;;;;;6.82;2.13;;;18.90;99.90;;;;;;5063118;28;20052;-34
2023/08/26 09:09:10;;;;;;;5.05;2.00;;;18.90;99.90;;;;;;5063362;28;20048;-34
2023/08/26 09:11:38;;;;;;;4.70;1.90;;;18.90;99.90;;;;;;5061916;28;20080;-34
2023/08/26 09:14:04;;;;;;;8.95;2.10;;;19.00;99.90;;;;;;5067711;28;20059;-35
2023/08/26 09:16:38;;;;;;;6.55;1.88;;;19.10;99.90;;;;;;5064665;28;20053;-35
2023/08/26 09:19:06;;;;;;;5.20;2.10;;;19.20;99.90;;;;;;5054334;28;20045;-34
2023/08/26 09:21:31;;;;;;;6.38;2.40;;;19.30;99.90;;;;;;5066619;28;20465;-34
2023/08/26 09:23:57;;;;;;;5.43;2.03;;;19.30;99.90;;;;;;5055043;28;20081;-34
2023/08/26 09:26:24;;;;;;;4.03;1.90;;;19.50;99.90;;;;;;5061555;28;20135;-34
2023/08/26 09:28:50;;;;;;;4.78;1.45;;;19.50;99.90;;;;;;5059840;28;20060;-34
2023/08/26 09:31:16;;;;;;;4.43;1.58;;;19.60;99.90;;;;;;5069827;28;20055;-41
2023/08/26 09:33:42;;;;;;;7.15;1.70;;;19.80;99.90;;;;;;5063603;28;20060;-34
2023/08/26 09:36:08;;;;;;;3.53;1.38;;;19.90;99.90;;;;;;5066027;28;20417;-35
2023/08/26 09:38:44;;;;;;;5.05;1.35;;;19.80;99.90;;;;;;5046482;28;20122;-34
2023/08/26 09:41:10;;;;;;;6.93;1.45;;;19.80;99.90;;;;;;5065768;28;20195;-35
2023/08/26 09:43:40;;;;;;;5.15;1.55;;;19.70;99.90;;;;;;5061320;28;20135;-35
2023/08/26 09:46:06;;;;;;;4.60;1.50;;;19.70;99.90;;;;;;5068021;28;20044;-35
2023/08/26 09:48:34;;;;;;;4.05;1.40;;;19.50;99.90;;;;;;5061364;28;20056;-35
2023/08/26 09:50:59;;;;;;;4.57;1.63;;;19.50;99.90;;;;;;5061373;28;20491;-35
2023/08/26 09:53:33;;;;;;;2.95;1.45;;;19.50;99.90;;;;;;5060868;28;20059;-35
2023/08/26 09:55:59;;;;;;;2.83;1.10;;;19.60;99.90;;;;;;5065477;28;20052;-35
2023/08/26 09:58:25;;;;;;;4.13;0.90;;;19.60;99.90;;;;;;5065913;28;20127;-36
2023/08/26 10:00:54;;;;;;;2.83;0.95;;;19.60;99.90;;;;;;5069051;28;20536;-36
2023/08/26 10:03:24;;;;;;;4.32;1.20;;;19.60;99.90;;;;;;5064980;28;20080;-36
2023/08/26 10:05:53;;;;;;;4.05;1.45;;;19.70;99.90;;;;;;5062557;28;20612;-34
2023/08/26 10:08:25;;;;;;;3.50;1.23;;;19.80;99.90;;;;;;5050137;28;20059;-36
2023/08/26 10:10:54;;;;;;;6.90;1.10;;;19.80;99.90;;;;;;5067053;28;20383;-36
2023/08/26 10:13:23;;;;;;;2.45;1.05;;;19.70;99.90;;;;;;5065024;28;20420;-36
2023/08/26 10:15:52;;;;;;;4.93;1.45;;;19.70;99.90;;;;;;5066472;28;20101;-36
2023/08/26 10:18:38;;;;;;;2.33;1.10;;;19.90;99.90;;;;;;5061302;28;20382;-36
2023/08/26 10:21:05;;;;;;;5.93;1.73;;;19.90;99.90;;;;;;5047264;28;20398;-35
2023/08/26 10:23:31;;;;;;;3.05;1.13;;;20.20;99.90;;;;;;5038772;28;20474;-36
2023/08/26 10:25:58;;;;;;;4.45;0.98;;;20.40;99.90;;;;;;5064698;28;20084;-36
2023/08/26 10:28:25;;;;;;;4.53;1.50;;;20.40;99.90;;;;;;5057180;28;20117;-36
2023/08/26 10:30:53;;;;;;;3.63;1.10;;;20.50;99.90;;;;;;5046707;28;20077;-36
2023/08/26 10:33:19;;;;;;;4.40;1.10;;;20.60;99.90;;;;;;5064617;28;20057;-36
2023/08/26 10:36:19;;;;;;;6.38;1.15;;;20.50;99.90;;;;;;5066325;28;20102;-35
2023/08/26 10:38:59;;;;;;;3.00;1.52;;;20.30;99.90;;;;;;5057870;28;20127;-35
2023/08/26 10:41:27;;;;;;;3.60;0.80;;;20.30;99.90;;;;;;5062560;28;20555;-35
2023/08/26 10:44:01;;;;;;;2.08;1.00;;;20.30;99.90;;;;;;5065666;28;20054;-35
2023/08/26 10:46:53;;;;;;;2.67;0.90;;;20.60;99.90;;;;;;5064790;28;20048;-36
2023/08/26 10:49:22;;;;;;;1.63;0.70;;;20.70;99.90;;;;;;5061815;28;20058;-35
2023/08/26 10:52:06;;;;;;;2.42;0.70;;;20.80;99.90;;;;;;5066298;28;20056;-35
2023/08/26 10:54:32;;;;;;;3.10;1.15;;;20.80;99.90;;;;;;5064170;28;20053;-35
2023/08/26 10:57:02;;;;;;;3.85;1.13;;;20.70;99.90;;;;;;5062889;28;20059;-35
2023/08/26 10:59:35;;;;;;;4.45;1.02;;;20.80;99.90;;;;;;5067213;28;20459;-35
2023/08/26 11:02:05;;;;;;;2.95;1.27;;;20.80;99.90;;;;;;5065904;28;20052;-35
2023/08/26 11:04:31;;;;;;;2.45;1.60;;;20.90;99.90;;;;;;5065964;28;20060;-35
2023/08/26 11:06:57;;;;;;;3.50;1.50;;;20.90;99.90;;;;;;5059587;28;20060;-35
2023/08/26 11:09:23;;;;;;;2.85;1.10;;;21.00;99.90;;;;;;5070644;28;20178;-36
2023/08/26 11:11:48;;;;;;;2.58;1.10;;;21.00;99.90;;;;;;5065796;28;20052;-35
2023/08/26 11:14:14;;;;;;;1.83;1.13;;;20.80;99.90;;;;;;5071078;28;20048;-35
2023/08/26 11:16:40;;;;;;;2.72;1.02;;;20.70;99.90;;;;;;5067043;28;20078;-35
2023/08/26 11:19:08;;;;;;;1.58;0.75;;;20.90;99.90;;;;;;5061231;28;20044;-35
2023/08/26 11:21:38;;;;;;;1.98;0.80;;;21.00;99.90;;;;;;5056378;28;20516;-35
2023/08/26 11:24:04;;;;;;;3.90;1.30;;;21.20;99.90;;;;;;5073484;28;20063;-35
2023/08/26 11:26:29;;;;;;;1.98;0.95;;;21.20;99.90;;;;;;5061495;28;20052;-35
2023/08/26 11:29:00;;;;;;;1.75;1.00;;;21.20;99.90;;;;;;5068041;28;20058;-35
2023/08/26 11:31:26;;;;;;;1.98;1.00;;;21.40;99.90;;;;;;5068094;28;20052;-35
2023/08/26 11:33:52;;;;;;;1.98;0.90;;;21.30;99.90;;;;;;5069651;28;20053;-35
2023/08/26 11:36:22;;;;;;;1.63;0.82;;;21.40;99.90;;;;;;5069280;28;20052;-35
2023/08/26 11:38:47;;;;;;;2.00;0.80;;;21.50;99.90;;;;;;5061808;28;20141;-35
2023/08/26 11:41:13;;;;;;;1.75;1.05;;;21.60;99.90;;;;;;5066542;28;20052;-35
2023/08/26 11:43:39;;;;;;;5.15;1.55;;;21.60;99.90;;;;;;5068889;28;20545;-35
2023/08/26 11:46:09;;;;;;;2.22;0.77;;;21.60;99.90;;;;;;5064313;28;20094;-35
2023/08/26 11:48:37;;;;;;;1.35;0.80;;;21.70;99.90;;;;;;5067138;28;20048;-35
2023/08/26 11:51:03;;;;;;;2.17;1.10;;;21.60;99.90;;;;;;5067554;28;20048;-35
2023/08/26 11:53:29;;;;;;;1.90;0.82;;;21.60;99.90;;;;;;5067229;28;20090;-35
2023/08/26 11:55:55;;;;;;;1.60;0.90;;;21.70;99.90;;;;;;5055429;28;20512;-35
2023/08/26 11:58:21;;;;;;;1.50;0.77;;;21.80;99.90;;;;;;5069335;28;20049;-35
2023/08/26 12:00:48;;;;;;;4.72;1.15;;;21.90;99.90;;;;;;5060619;28;20052;-35
2023/08/26 12:03:13;;;;;;;3.63;1.20;;;21.80;99.90;;;;;;5069258;28;20056;-35
2023/08/26 12:05:43;;;;;;;5.70;1.05;;;21.80;99.90;;;;;;5056380;28;20053;-35
2023/08/26 12:08:13;;;;;;;2.75;1.00;;;22.00;99.90;;;;;;5066914;28;20502;-35
2023/08/26 12:10:39;;;;;;;3.20;1.27;;;22.10;99.90;;;;;;5066644;28;20055;-35
2023/08/26 12:13:05;;;;;;;2.17;1.27;;;22.10;99.90;;;;;;5068599;28;20051;-35
2023/08/26 12:15:31;;;;;;;2.53;1.17;;;22.10;99.90;;;;;;5063539;28;20056;-35
2023/08/26 12:18:00;;;;;;;1.95;1.00;;;22.30;99.90;;;;;;5067112;28;20414;-35
2023/08/26 12:20:30;;;;;;;2.67;1.20;;;22.20;99.90;;;;;;5068913;28;20666;-36
2023/08/26 12:23:04;;;;;;;3.45;1.52;;;22.30;99.90;;;;;;5065627;28;20055;-36
2023/08/26 12:25:41;;;;;;;3.80;1.40;;;22.20;99.90;;;;;;5064738;28;20055;-35
2023/08/26 12:28:22;;;;;;;2.40;1.40;;;22.20;99.90;;;;;;5057258;28;20129;-35
2023/08/26 12:30:48;;;;;;;4.30;1.50;;;22.30;99.90;;;;;;5066427;28;20052;-35
2023/08/26 12:33:14;;;;;;;2.95;1.50;;;22.40;99.90;;;;;;5066761;28;20048;-36
2023/08/26 12:35:40;;;;;;;2.33;1.08;;;22.20;99.90;;;;;;5065385;28;20512;-35
2023/08/26 12:38:06;;;;;;;2.08;1.17;;;22.00;99.90;;;;;;5068132;28;20048;-35
2023/08/26 12:40:34;;;;;;;2.67;1.33;;;21.70;99.90;;;;;;5068631;28;20572;-35
2023/08/26 12:43:00;;;;;;;2.15;1.30;;;21.50;99.90;;;;;;5060016;28;20036;-35
2023/08/26 12:45:30;;;;;;;4.28;1.75;;;21.30;99.90;;;;;;5066725;28;20106;-36